sensor_id;sensor_type;location;lat;lon;timestamp;temperature;humidity
23160;DHT22;11748;50.844;4.396;2022-09-20T00:01:21;14.30;99.90
23160;DHT22;11748;50.844;4.396;2022-09-20T00:03:49;14.30;99.90
23160;DHT22;11748;50.844;4.396;2022-09-20T00:06:18;14.20;99.90
23160;DHT22;11748;50.844;4.396;2022-09-20T00:08:44;14.20;99.90
23160;DHT22;11748;50.844;4.396;2022-09-20T00:11:23;14.20;99.90
23160;DHT22;11748;50.844;4.396;2022-09-20T00:13:51;14.20;99.90
23160;DHT22;11748;50.844;4.396;2022-09-20T00:16:22;13.90;99.90
23160;DHT22;11748;50.844;4.396;2022-09-20T00:18:51;13.60;99.90
23160;DHT22;11748;50.844;4.396;2022-09-20T00:21:19;13.50;99.90
23160;DHT22;11748;50.844;4.396;2022-09-20T00:23:45;13.40;99.90
23160;DHT22;11748;50.844;4.396;2022-09-20T00:26:11;13.30;99.90
23160;DHT22;11748;50.844;4.396;2022-09-20T00:28:38;13.30;99.90
23160;DHT22;11748;50.844;4.396;2022-09-20T00:31:05;13.20;99.90
23160;DHT22;11748;50.844;4.396;2022-09-20T00:33:31;13.20;99.90
23160;DHT22;11748;50.844;4.396;2022-09-20T00:36:15;13.20;99.90
23160;DHT22;11748;50.844;4.396;2022-09-20T00:38:41;13.20;99.90
23160;DHT22;11748;50.844;4.396;2022-09-20T00:41:07;13.10;99.90
23160;DHT22;11748;50.844;4.396;2022-09-20T00:43:39;13.10;99.90
23160;DHT22;11748;50.844;4.396;2022-09-20T00:48:43;13.10;99.90
23160;DHT22;11748;50.844;4.396;2022-09-20T00:51:12;13.10;99.90
23160;DHT22;11748;50.844;4.396;2022-09-20T00:53:44;13.00;99.90
23160;DHT22;11748;50.844;4.396;2022-09-20T00:56:23;13.00;99.90
23160;DHT22;11748;50.844;4.396;2022-09-20T00:59:28;13.00;99.90
23160;DHT22;11748;50.844;4.396;2022-09-20T01:04:29;12.90;99.90
23160;DHT22;11748;50.844;4.396;2022-09-20T01:06:58;12.80;99.90
23160;DHT22;11748;50.844;4.396;2022-09-20T01:09:25;12.80;99.90
23160;DHT22;11748;50.844;4.396;2022-09-20T01:11:54;12.70;99.90
23160;DHT22;11748;50.844;4.396;2022-09-20T01:14:21;12.80;99.90
23160;DHT22;11748;50.844;4.396;2022-09-20T01:16:53;12.80;99.90
23160;DHT22;11748;50.844;4.396;2022-09-20T01:21:52;12.90;99.90
23160;DHT22;11748;50.844;4.396;2022-09-20T01:24:43;13.00;99.90
23160;DHT22;11748;50.844;4.396;2022-09-20T01:31:30;13.00;99.90
23160;DHT22;11748;50.844;4.396;2022-09-20T01:39:06;13.20;99.90
23160;DHT22;11748;50.844;4.396;2022-09-20T01:41:48;13.20;99.90
23160;DHT22;11748;50.844;4.396;2022-09-20T01:50:04;13.00;99.90
23160;DHT22;11748;50.844;4.396;2022-09-20T02:07:07;12.90;99.90
23160;DHT22;11748;50.844;4.396;2022-09-20T02:24:27;13.40;99.90
23160;DHT22;11748;50.844;4.396;2022-09-20T02:43:13;13.00;99.90
23160;DHT22;11748;50.844;4.396;2022-09-20T02:45:47;13.20;99.90
23160;DHT22;11748;50.844;4.396;2022-09-20T02:48:22;13.40;99.90
23160;DHT22;11748;50.844;4.396;2022-09-20T02:51:00;13.40;99.90
23160;DHT22;11748;50.844;4.396;2022-09-20T02:56:29;13.20;99.90
23160;DHT22;11748;50.844;4.396;2022-09-20T03:07:15;13.40;99.90
23160;DHT22;11748;50.844;4.396;2022-09-20T03:26:55;13.80;99.90
23160;DHT22;11748;50.844;4.396;2022-09-20T03:29:33;13.80;99.90
23160;DHT22;11748;50.844;4.396;2022-09-20T03:40:17;13.50;99.90
23160;DHT22;11748;50.844;4.396;2022-09-20T03:42:51;13.70;99.90
23160;DHT22;11748;50.844;4.396;2022-09-20T03:50:50;13.80;99.90
23160;DHT22;11748;50.844;4.396;2022-09-20T03:53:39;13.80;99.90
23160;DHT22;11748;50.844;4.396;2022-09-20T04:04:47;13.20;99.90
23160;DHT22;11748;50.844;4.396;2022-09-20T04:21:37;12.90;99.90
23160;DHT22;11748;50.844;4.396;2022-09-20T04:24:32;13.00;99.90
23160;DHT22;11748;50.844;4.396;2022-09-20T04:27:22;12.90;99.90
23160;DHT22;11748;50.844;4.396;2022-09-20T04:35:10;12.80;99.90
23160;DHT22;11748;50.844;4.396;2022-09-20T04:37:58;12.70;99.90
23160;DHT22;11748;50.844;4.396;2022-09-20T04:52:07;12.20;99.90
23160;DHT22;11748;50.844;4.396;2022-09-20T05:32:50;12.20;99.90
23160;DHT22;11748;50.844;4.396;2022-09-20T05:38:24;12.10;99.90
23160;DHT22;11748;50.844;4.396;2022-09-20T05:43:29;12.30;99.90
23160;DHT22;11748;50.844;4.396;2022-09-20T05:46:31;12.50;99.90
23160;DHT22;11748;50.844;4.396;2022-09-20T05:57:30;12.60;99.90
23160;DHT22;11748;50.844;4.396;2022-09-20T06:00:30;12.40;99.90
23160;DHT22;11748;50.844;4.396;2022-09-20T06:03:18;12.30;99.90
23160;DHT22;11748;50.844;4.396;2022-09-20T06:12:14;12.30;99.90
23160;DHT22;11748;50.844;4.396;2022-09-20T06:14:59;12.20;99.90
23160;DHT22;11748;50.844;4.396;2022-09-20T06:17:37;12.20;99.90
23160;DHT22;11748;50.844;4.396;2022-09-20T06:22:59;12.40;99.90
23160;DHT22;11748;50.844;4.396;2022-09-20T06:25:36;12.90;99.90
23160;DHT22;11748;50.844;4.396;2022-09-20T06:30:45;13.70;99.90
23160;DHT22;11748;50.844;4.396;2022-09-20T06:33:14;13.90;99.90
23160;DHT22;11748;50.844;4.396;2022-09-20T06:36:00;13.60;99.90
23160;DHT22;11748;50.844;4.396;2022-09-20T06:41:59;13.10;99.90
23160;DHT22;11748;50.844;4.396;2022-09-20T06:44:25;13.20;99.90
23160;DHT22;11748;50.844;4.396;2022-09-20T06:46:51;13.00;99.90
23160;DHT22;11748;50.844;4.396;2022-09-20T06:49:21;13.00;99.90
23160;DHT22;11748;50.844;4.396;2022-09-20T06:51:47;13.00;99.90
23160;DHT22;11748;50.844;4.396;2022-09-20T06:54:20;13.10;99.90
23160;DHT22;11748;50.844;4.396;2022-09-20T06:56:48;13.00;99.90
23160;DHT22;11748;50.844;4.396;2022-09-20T06:59:18;12.90;99.90
23160;DHT22;11748;50.844;4.396;2022-09-20T07:01:43;12.90;99.90
23160;DHT22;11748;50.844;4.396;2022-09-20T07:04:09;12.90;99.90
23160;DHT22;11748;50.844;4.396;2022-09-20T07:06:35;12.90;99.90
23160;DHT22;11748;50.844;4.396;2022-09-20T07:09:01;12.80;99.90
23160;DHT22;11748;50.844;4.396;2022-09-20T07:11:27;12.70;99.90
23160;DHT22;11748;50.844;4.396;2022-09-20T07:13:56;12.80;99.90
23160;DHT22;11748;50.844;4.396;2022-09-20T07:16:23;12.90;99.90
23160;DHT22;11748;50.844;4.396;2022-09-20T07:18:49;13.00;99.90
23160;DHT22;11748;50.844;4.396;2022-09-20T07:21:18;13.10;99.90
23160;DHT22;11748;50.844;4.396;2022-09-20T07:23:44;13.10;99.90
23160;DHT22;11748;50.844;4.396;2022-09-20T07:26:23;13.30;99.90
23160;DHT22;11748;50.844;4.396;2022-09-20T07:28:51;13.40;99.90
23160;DHT22;11748;50.844;4.396;2022-09-20T07:31:18;13.50;99.90
23160;DHT22;11748;50.844;4.396;2022-09-20T07:33:44;13.60;99.90
23160;DHT22;11748;50.844;4.396;2022-09-20T07:36:10;13.50;99.90
23160;DHT22;11748;50.844;4.396;2022-09-20T07:38:40;13.50;99.90
23160;DHT22;11748;50.844;4.396;2022-09-20T07:41:12;13.60;99.90
23160;DHT22;11748;50.844;4.396;2022-09-20T07:43:38;13.60;99.90
23160;DHT22;11748;50.844;4.396;2022-09-20T07:46:04;13.80;99.90
23160;DHT22;11748;50.844;4.396;2022-09-20T07:48:32;13.80;99.90
23160;DHT22;11748;50.844;4.396;2022-09-20T07:51:05;13.80;99.90
23160;DHT22;11748;50.844;4.396;2022-09-20T07:53:31;13.90;99.90
23160;DHT22;11748;50.844;4.396;2022-09-20T07:56:05;14.10;99.90
23160;DHT22;11748;50.844;4.396;2022-09-20T07:58:34;14.00;99.90
23160;DHT22;11748;50.844;4.396;2022-09-20T08:01:05;14.00;99.90
23160;DHT22;11748;50.844;4.396;2022-09-20T08:03:32;13.70;99.90
23160;DHT22;11748;50.844;4.396;2022-09-20T08:06:03;13.60;99.90
23160;DHT22;11748;50.844;4.396;2022-09-20T08:08:35;13.60;99.90
23160;DHT22;11748;50.844;4.396;2022-09-20T08:11:07;13.70;99.90
23160;DHT22;11748;50.844;4.396;2022-09-20T08:13:43;13.80;99.90
23160;DHT22;11748;50.844;4.396;2022-09-20T08:16:10;14.10;99.90
23160;DHT22;11748;50.844;4.396;2022-09-20T08:18:43;14.40;99.90
23160;DHT22;11748;50.844;4.396;2022-09-20T08:21:10;14.30;99.90
23160;DHT22;11748;50.844;4.396;2022-09-20T08:23:39;14.40;99.90
23160;DHT22;11748;50.844;4.396;2022-09-20T08:26:08;14.40;99.90
23160;DHT22;11748;50.844;4.396;2022-09-20T08:28:33;14.30;99.90
23160;DHT22;11748;50.844;4.396;2022-09-20T08:31:12;14.40;99.90
23160;DHT22;11748;50.844;4.396;2022-09-20T08:33:39;14.50;99.90
23160;DHT22;11748;50.844;4.396;2022-09-20T08:36:06;14.60;99.90
23160;DHT22;11748;50.844;4.396;2022-09-20T08:38:34;14.70;99.90
23160;DHT22;11748;50.844;4.396;2022-09-20T08:49:41;15.80;99.90
23160;DHT22;11748;50.844;4.396;2022-09-20T08:52:16;15.90;99.90
23160;DHT22;11748;50.844;4.396;2022-09-20T08:54:43;16.00;99.90
23160;DHT22;11748;50.844;4.396;2022-09-20T08:57:15;15.90;99.90
23160;DHT22;11748;50.844;4.396;2022-09-20T08:59:42;16.10;99.90
23160;DHT22;11748;50.844;4.396;2022-09-20T09:02:18;16.20;99.90
23160;DHT22;11748;50.844;4.396;2022-09-20T09:04:45;16.50;99.90
23160;DHT22;11748;50.844;4.396;2022-09-20T09:07:16;16.60;99.90
23160;DHT22;11748;50.844;4.396;2022-09-20T09:09:44;16.70;99.90
23160;DHT22;11748;50.844;4.396;2022-09-20T09:12:25;17.00;99.90
23160;DHT22;11748;50.844;4.396;2022-09-20T09:14:57;17.00;99.90
23160;DHT22;11748;50.844;4.396;2022-09-20T09:17:26;17.00;99.90
23160;DHT22;11748;50.844;4.396;2022-09-20T09:19:56;16.90;99.90
23160;DHT22;11748;50.844;4.396;2022-09-20T09:22:58;16.50;99.90
23160;DHT22;11748;50.844;4.396;2022-09-20T09:30:39;16.10;99.90
23160;DHT22;11748;50.844;4.396;2022-09-20T09:36:14;16.40;99.90
23160;DHT22;11748;50.844;4.396;2022-09-20T09:38:42;16.70;99.90
23160;DHT22;11748;50.844;4.396;2022-09-20T09:44:02;17.40;99.90
23160;DHT22;11748;50.844;4.396;2022-09-20T09:46:31;17.70;99.90
23160;DHT22;11748;50.844;4.396;2022-09-20T09:54:27;17.20;99.90
23160;DHT22;11748;50.844;4.396;2022-09-20T10:00:19;17.50;99.90
23160;DHT22;11748;50.844;4.396;2022-09-20T10:05:45;18.40;99.90
23160;DHT22;11748;50.844;4.396;2022-09-20T10:19:49;17.40;99.90
23160;DHT22;11748;50.844;4.396;2022-09-20T10:25:02;17.70;99.90
23160;DHT22;11748;50.844;4.396;2022-09-20T10:33:49;17.90;99.90
23160;DHT22;11748;50.844;4.396;2022-09-20T10:36:23;17.70;99.90
23160;DHT22;11748;50.844;4.396;2022-09-20T10:38:54;17.90;99.90
23160;DHT22;11748;50.844;4.396;2022-09-20T10:42:00;18.00;99.90
23160;DHT22;11748;50.844;4.396;2022-09-20T10:53:54;17.90;99.90
23160;DHT22;11748;50.844;4.396;2022-09-20T11:02:08;17.30;99.90
23160;DHT22;11748;50.844;4.396;2022-09-20T11:10:04;17.00;99.90
23160;DHT22;11748;50.844;4.396;2022-09-20T11:12:46;16.80;99.90
23160;DHT22;11748;50.844;4.396;2022-09-20T11:15:19;16.70;99.90
23160;DHT22;11748;50.844;4.396;2022-09-20T11:20:48;16.60;99.90
23160;DHT22;11748;50.844;4.396;2022-09-20T11:23:23;16.70;99.90
23160;DHT22;11748;50.844;4.396;2022-09-20T11:25:59;16.90;99.90
23160;DHT22;11748;50.844;4.396;2022-09-20T11:28:36;16.90;99.90
23160;DHT22;11748;50.844;4.396;2022-09-20T11:33:47;17.30;99.90
23160;DHT22;11748;50.844;4.396;2022-09-20T11:36:28;17.20;99.90
23160;DHT22;11748;50.844;4.396;2022-09-20T11:39:04;17.30;99.90
23160;DHT22;11748;50.844;4.396;2022-09-20T11:41:35;17.50;99.90
23160;DHT22;11748;50.844;4.396;2022-09-20T11:44:12;17.70;99.90
23160;DHT22;11748;50.844;4.396;2022-09-20T11:47:00;17.70;99.90
23160;DHT22;11748;50.844;4.396;2022-09-20T11:55:02;18.00;99.90
23160;DHT22;11748;50.844;4.396;2022-09-20T11:57:32;18.20;99.90
23160;DHT22;11748;50.844;4.396;2022-09-20T12:00:00;18.30;99.90
23160;DHT22;11748;50.844;4.396;2022-09-20T12:02:37;18.60;99.90
23160;DHT22;11748;50.844;4.396;2022-09-20T12:05:26;18.70;99.90
23160;DHT22;11748;50.844;4.396;2022-09-20T12:08:04;18.40;99.90
23160;DHT22;11748;50.844;4.396;2022-09-20T12:10:36;18.00;99.90
23160;DHT22;11748;50.844;4.396;2022-09-20T12:13:22;17.90;99.90
23160;DHT22;11748;50.844;4.396;2022-09-20T12:16:02;18.00;99.90
23160;DHT22;11748;50.844;4.396;2022-09-20T12:21:19;18.50;99.90
23160;DHT22;11748;50.844;4.396;2022-09-20T12:24:29;18.70;99.90
23160;DHT22;11748;50.844;4.396;2022-09-20T12:26:38;18.80;99.90
23160;DHT22;11748;50.844;4.396;2022-09-20T12:32:01;18.80;99.90
23160;DHT22;11748;50.844;4.396;2022-09-20T12:34:39;19.10;99.90
23160;DHT22;11748;50.844;4.396;2022-09-20T12:39:52;19.60;99.90
23160;DHT22;11748;50.844;4.396;2022-09-20T12:42:28;19.60;99.90
23160;DHT22;11748;50.844;4.396;2022-09-20T12:45:04;19.80;99.90
23160;DHT22;11748;50.844;4.396;2022-09-20T12:47:34;19.90;99.90
23160;DHT22;11748;50.844;4.396;2022-09-20T12:50:13;20.10;99.90
23160;DHT22;11748;50.844;4.396;2022-09-20T12:53:00;20.10;99.90
23160;DHT22;11748;50.844;4.396;2022-09-20T13:01:33;19.50;99.90
23160;DHT22;11748;50.844;4.396;2022-09-20T13:07:29;19.10;99.90
23160;DHT22;11748;50.844;4.396;2022-09-20T13:10:04;19.10;99.90
23160;DHT22;11748;50.844;4.396;2022-09-20T13:12:38;18.90;99.90
23160;DHT22;11748;50.844;4.396;2022-09-20T13:15:05;18.90;99.90
23160;DHT22;11748;50.844;4.396;2022-09-20T13:17:31;18.90;99.90
23160;DHT22;11748;50.844;4.396;2022-09-20T13:19:57;18.80;99.90
23160;DHT22;11748;50.844;4.396;2022-09-20T13:22:34;18.90;99.90
23160;DHT22;11748;50.844;4.396;2022-09-20T13:25:05;18.70;99.90
23160;DHT22;11748;50.844;4.396;2022-09-20T13:30:21;18.70;99.90
23160;DHT22;11748;50.844;4.396;2022-09-20T13:32:48;18.50;99.90
23160;DHT22;11748;50.844;4.396;2022-09-20T13:35:19;18.50;99.90
23160;DHT22;11748;50.844;4.396;2022-09-20T13:38:00;18.40;99.90
23160;DHT22;11748;50.844;4.396;2022-09-20T13:43:06;18.20;99.90
23160;DHT22;11748;50.844;4.396;2022-09-20T13:45:42;18.40;99.90
23160;DHT22;11748;50.844;4.396;2022-09-20T13:48:08;18.70;99.90
23160;DHT22;11748;50.844;4.396;2022-09-20T13:50:34;18.80;99.90
23160;DHT22;11748;50.844;4.396;2022-09-20T13:53:13;18.80;99.90
23160;DHT22;11748;50.844;4.396;2022-09-20T13:55:41;18.90;99.90
23160;DHT22;11748;50.844;4.396;2022-09-20T13:58:21;18.90;99.90
23160;DHT22;11748;50.844;4.396;2022-09-20T14:00:57;18.90;99.90
23160;DHT22;11748;50.844;4.396;2022-09-20T14:03:25;18.90;99.90
23160;DHT22;11748;50.844;4.396;2022-09-20T14:05:58;18.70;99.90
23160;DHT22;11748;50.844;4.396;2022-09-20T14:08:36;18.60;99.90
23160;DHT22;11748;50.844;4.396;2022-09-20T14:11:23;18.70;99.90
23160;DHT22;11748;50.844;4.396;2022-09-20T14:13:55;18.80;99.90
23160;DHT22;11748;50.844;4.396;2022-09-20T14:17:00;18.80;99.90
23160;DHT22;11748;50.844;4.396;2022-09-20T14:19:22;18.70;99.90
23160;DHT22;11748;50.844;4.396;2022-09-20T14:21:49;18.60;99.90
23160;DHT22;11748;50.844;4.396;2022-09-20T14:26:43;18.40;99.90
23160;DHT22;11748;50.844;4.396;2022-09-20T14:32:01;18.50;99.90
23160;DHT22;11748;50.844;4.396;2022-09-20T14:34:30;18.50;99.90
23160;DHT22;11748;50.844;4.396;2022-09-20T14:37:26;18.40;99.90
23160;DHT22;11748;50.844;4.396;2022-09-20T14:39:56;18.40;99.90
23160;DHT22;11748;50.844;4.396;2022-09-20T14:42:46;18.30;99.90
23160;DHT22;11748;50.844;4.396;2022-09-20T14:47:59;18.20;99.90
23160;DHT22;11748;50.844;4.396;2022-09-20T14:55:36;18.30;99.90
23160;DHT22;11748;50.844;4.396;2022-09-20T14:58:13;18.40;99.90
23160;DHT22;11748;50.844;4.396;2022-09-20T15:00:51;18.50;99.90
23160;DHT22;11748;50.844;4.396;2022-09-20T15:03:37;18.60;99.90
23160;DHT22;11748;50.844;4.396;2022-09-20T15:06:11;18.60;99.90
23160;DHT22;11748;50.844;4.396;2022-09-20T15:08:39;18.50;99.90
23160;DHT22;11748;50.844;4.396;2022-09-20T15:11:05;18.60;99.90
23160;DHT22;11748;50.844;4.396;2022-09-20T15:13:31;18.60;99.90
23160;DHT22;11748;50.844;4.396;2022-09-20T15:15:57;18.40;99.90
23160;DHT22;11748;50.844;4.396;2022-09-20T15:18:34;18.20;99.90
23160;DHT22;11748;50.844;4.396;2022-09-20T15:21:01;18.20;99.90
23160;DHT22;11748;50.844;4.396;2022-09-20T15:23:28;18.10;99.90
23160;DHT22;11748;50.844;4.396;2022-09-20T15:25:55;18.20;99.90
23160;DHT22;11748;50.844;4.396;2022-09-20T15:28:21;18.20;99.90
23160;DHT22;11748;50.844;4.396;2022-09-20T15:30:48;18.10;99.90
23160;DHT22;11748;50.844;4.396;2022-09-20T15:33:15;18.00;99.90
23160;DHT22;11748;50.844;4.396;2022-09-20T15:35:42;17.90;99.90
23160;DHT22;11748;50.844;4.396;2022-09-20T15:38:08;18.00;99.90
23160;DHT22;11748;50.844;4.396;2022-09-20T15:40:39;18.20;99.90
23160;DHT22;11748;50.844;4.396;2022-09-20T15:43:06;18.10;99.90
23160;DHT22;11748;50.844;4.396;2022-09-20T15:45:34;18.00;99.90
23160;DHT22;11748;50.844;4.396;2022-09-20T15:48:01;17.80;99.90
23160;DHT22;11748;50.844;4.396;2022-09-20T15:50:28;17.80;99.90
23160;DHT22;11748;50.844;4.396;2022-09-20T15:52:54;17.60;99.90
23160;DHT22;11748;50.844;4.396;2022-09-20T15:55:22;17.30;99.90
23160;DHT22;11748;50.844;4.396;2022-09-20T15:57:48;17.30;99.90
23160;DHT22;11748;50.844;4.396;2022-09-20T16:00:16;17.40;99.90
23160;DHT22;11748;50.844;4.396;2022-09-20T16:02:43;17.40;99.90
23160;DHT22;11748;50.844;4.396;2022-09-20T16:05:12;17.60;99.90
23160;DHT22;11748;50.844;4.396;2022-09-20T16:07:38;17.60;99.90
23160;DHT22;11748;50.844;4.396;2022-09-20T16:10:04;17.60;99.90
23160;DHT22;11748;50.844;4.396;2022-09-20T16:12:30;17.40;99.90
23160;DHT22;11748;50.844;4.396;2022-09-20T16:14:56;17.20;99.90
23160;DHT22;11748;50.844;4.396;2022-09-20T16:17:21;17.30;99.90
23160;DHT22;11748;50.844;4.396;2022-09-20T16:20:07;17.20;99.90
23160;DHT22;11748;50.844;4.396;2022-09-20T16:22:33;16.90;99.90
23160;DHT22;11748;50.844;4.396;2022-09-20T16:24:59;16.80;99.90
23160;DHT22;11748;50.844;4.396;2022-09-20T16:27:25;16.70;99.90
23160;DHT22;11748;50.844;4.396;2022-09-20T16:29:51;16.80;99.90
23160;DHT22;11748;50.844;4.396;2022-09-20T16:32:17;16.70;99.90
23160;DHT22;11748;50.844;4.396;2022-09-20T16:34:43;16.60;99.90
23160;DHT22;11748;50.844;4.396;2022-09-20T16:37:11;16.50;99.90
23160;DHT22;11748;50.844;4.396;2022-09-20T16:39:40;16.50;99.90
23160;DHT22;11748;50.844;4.396;2022-09-20T16:42:06;16.50;99.90
23160;DHT22;11748;50.844;4.396;2022-09-20T16:44:38;16.50;99.90
23160;DHT22;11748;50.844;4.396;2022-09-20T16:47:10;16.50;99.90
23160;DHT22;11748;50.844;4.396;2022-09-20T16:49:36;16.50;99.90
23160;DHT22;11748;50.844;4.396;2022-09-20T16:52:07;16.40;99.90
23160;DHT22;11748;50.844;4.396;2022-09-20T16:54:33;16.30;99.90
23160;DHT22;11748;50.844;4.396;2022-09-20T16:56:59;16.20;99.90
23160;DHT22;11748;50.844;4.396;2022-09-20T16:59:25;16.20;99.90
23160;DHT22;11748;50.844;4.396;2022-09-20T17:01:51;16.20;99.90
23160;DHT22;11748;50.844;4.396;2022-09-20T17:04:17;16.20;99.90
23160;DHT22;11748;50.844;4.396;2022-09-20T17:06:45;16.20;99.90
23160;DHT22;11748;50.844;4.396;2022-09-20T17:09:12;16.20;99.90
23160;DHT22;11748;50.844;4.396;2022-09-20T17:11:42;16.20;99.90
23160;DHT22;11748;50.844;4.396;2022-09-20T17:14:14;16.20;99.90
23160;DHT22;11748;50.844;4.396;2022-09-20T17:16:41;16.10;99.90
23160;DHT22;11748;50.844;4.396;2022-09-20T17:19:11;16.20;99.90
23160;DHT22;11748;50.844;4.396;2022-09-20T17:21:42;16.20;99.90
23160;DHT22;11748;50.844;4.396;2022-09-20T17:24:11;16.20;99.90
23160;DHT22;11748;50.844;4.396;2022-09-20T17:26:41;16.20;99.90
23160;DHT22;11748;50.844;4.396;2022-09-20T17:29:10;16.20;99.90
23160;DHT22;11748;50.844;4.396;2022-09-20T17:31:41;16.20;99.90
23160;DHT22;11748;50.844;4.396;2022-09-20T17:34:09;16.10;99.90
23160;DHT22;11748;50.844;4.396;2022-09-20T17:36:38;16.00;99.90
23160;DHT22;11748;50.844;4.396;2022-09-20T17:39:07;16.00;99.90
23160;DHT22;11748;50.844;4.396;2022-09-20T17:41:37;16.10;99.90
23160;DHT22;11748;50.844;4.396;2022-09-20T17:44:03;16.00;99.90
23160;DHT22;11748;50.844;4.396;2022-09-20T17:46:35;15.90;99.90
23160;DHT22;11748;50.844;4.396;2022-09-20T17:49:22;15.80;99.90
23160;DHT22;11748;50.844;4.396;2022-09-20T17:51:50;15.70;99.90
23160;DHT22;11748;50.844;4.396;2022-09-20T17:54:17;15.60;99.90
23160;DHT22;11748;50.844;4.396;2022-09-20T17:56:45;15.70;99.90
23160;DHT22;11748;50.844;4.396;2022-09-20T17:59:12;15.60;99.90
23160;DHT22;11748;50.844;4.396;2022-09-20T18:01:43;15.60;99.90
23160;DHT22;11748;50.844;4.396;2022-09-20T18:04:09;15.60;99.90
23160;DHT22;11748;50.844;4.396;2022-09-20T18:06:37;15.60;99.90
23160;DHT22;11748;50.844;4.396;2022-09-20T18:09:06;15.60;99.90
23160;DHT22;11748;50.844;4.396;2022-09-20T18:11:41;15.50;99.90
23160;DHT22;11748;50.844;4.396;2022-09-20T18:14:10;15.50;99.90
23160;DHT22;11748;50.844;4.396;2022-09-20T18:16:37;15.50;99.90
23160;DHT22;11748;50.844;4.396;2022-09-20T18:19:04;15.50;99.90
23160;DHT22;11748;50.844;4.396;2022-09-20T18:21:31;15.50;99.90
23160;DHT22;11748;50.844;4.396;2022-09-20T18:23:58;15.50;99.90
23160;DHT22;11748;50.844;4.396;2022-09-20T18:26:27;15.60;99.90
23160;DHT22;11748;50.844;4.396;2022-09-20T18:29:02;15.60;99.90
23160;DHT22;11748;50.844;4.396;2022-09-20T18:31:32;15.60;99.90
23160;DHT22;11748;50.844;4.396;2022-09-20T18:34:04;15.60;99.90
23160;DHT22;11748;50.844;4.396;2022-09-20T18:36:36;15.50;99.90
23160;DHT22;11748;50.844;4.396;2022-09-20T18:39:03;15.50;99.90
23160;DHT22;11748;50.844;4.396;2022-09-20T18:41:32;15.40;99.90
23160;DHT22;11748;50.844;4.396;2022-09-20T18:43:59;15.40;99.90
23160;DHT22;11748;50.844;4.396;2022-09-20T18:46:26;15.40;99.90
23160;DHT22;11748;50.844;4.396;2022-09-20T18:48:54;15.30;99.90
23160;DHT22;11748;50.844;4.396;2022-09-20T18:51:22;15.30;99.90
23160;DHT22;11748;50.844;4.396;2022-09-20T18:53:50;15.30;99.90
23160;DHT22;11748;50.844;4.396;2022-09-20T18:56:24;15.30;99.90
23160;DHT22;11748;50.844;4.396;2022-09-20T18:59:01;15.30;99.90
23160;DHT22;11748;50.844;4.396;2022-09-20T19:09:56;15.30;99.90
23160;DHT22;11748;50.844;4.396;2022-09-20T19:12:47;15.20;99.90
23160;DHT22;11748;50.844;4.396;2022-09-20T19:15:37;15.20;99.90
23160;DHT22;11748;50.844;4.396;2022-09-20T19:21:18;15.10;99.90
23160;DHT22;11748;50.844;4.396;2022-09-20T19:23:59;15.00;99.90
23160;DHT22;11748;50.844;4.396;2022-09-20T19:26:31;14.90;99.90
23160;DHT22;11748;50.844;4.396;2022-09-20T19:29:03;14.90;99.90
23160;DHT22;11748;50.844;4.396;2022-09-20T19:31:37;15.00;99.90
23160;DHT22;11748;50.844;4.396;2022-09-20T19:34:20;14.90;99.90
23160;DHT22;11748;50.844;4.396;2022-09-20T19:37:13;15.00;99.90
23160;DHT22;11748;50.844;4.396;2022-09-20T19:40:43;14.90;99.90
23160;DHT22;11748;50.844;4.396;2022-09-20T19:45:48;14.80;99.90
23160;DHT22;11748;50.844;4.396;2022-09-20T19:48:39;14.80;99.90
23160;DHT22;11748;50.844;4.396;2022-09-20T19:51:10;14.70;99.90
23160;DHT22;11748;50.844;4.396;2022-09-20T19:53:37;14.80;99.90
23160;DHT22;11748;50.844;4.396;2022-09-20T19:58:49;14.70;99.90
23160;DHT22;11748;50.844;4.396;2022-09-20T20:01:20;14.60;99.90
23160;DHT22;11748;50.844;4.396;2022-09-20T20:03:52;14.50;99.90
23160;DHT22;11748;50.844;4.396;2022-09-20T20:06:31;14.60;99.90
23160;DHT22;11748;50.844;4.396;2022-09-20T20:14:48;14.70;99.90
23160;DHT22;11748;50.844;4.396;2022-09-20T20:20:24;14.80;99.90
23160;DHT22;11748;50.844;4.396;2022-09-20T20:25:47;14.70;99.90
23160;DHT22;11748;50.844;4.396;2022-09-20T20:28:16;14.70;99.90
23160;DHT22;11748;50.844;4.396;2022-09-20T20:30:42;14.70;99.90
23160;DHT22;11748;50.844;4.396;2022-09-20T20:33:13;14.60;99.90
23160;DHT22;11748;50.844;4.396;2022-09-20T20:35:41;14.50;99.90
23160;DHT22;11748;50.844;4.396;2022-09-20T20:38:07;14.40;99.90
23160;DHT22;11748;50.844;4.396;2022-09-20T20:40:36;14.40;99.90
23160;DHT22;11748;50.844;4.396;2022-09-20T20:43:02;14.50;99.90
23160;DHT22;11748;50.844;4.396;2022-09-20T20:45:28;14.70;99.90
23160;DHT22;11748;50.844;4.396;2022-09-20T20:47:57;14.70;99.90
23160;DHT22;11748;50.844;4.396;2022-09-20T20:50:24;14.80;99.90
23160;DHT22;11748;50.844;4.396;2022-09-20T20:52:52;14.70;99.90
23160;DHT22;11748;50.844;4.396;2022-09-20T20:55:19;14.80;99.90
23160;DHT22;11748;50.844;4.396;2022-09-20T20:57:50;14.90;99.90
23160;DHT22;11748;50.844;4.396;2022-09-20T21:00:16;14.80;99.90
23160;DHT22;11748;50.844;4.396;2022-09-20T21:02:44;14.90;99.90
23160;DHT22;11748;50.844;4.396;2022-09-20T21:05:11;14.80;99.90
23160;DHT22;11748;50.844;4.396;2022-09-20T21:07:38;14.70;99.90
23160;DHT22;11748;50.844;4.396;2022-09-20T21:10:04;14.70;99.90
23160;DHT22;11748;50.844;4.396;2022-09-20T21:12:31;14.50;99.90
23160;DHT22;11748;50.844;4.396;2022-09-20T21:14:56;14.40;99.90
23160;DHT22;11748;50.844;4.396;2022-09-20T21:17:22;14.40;99.90
23160;DHT22;11748;50.844;4.396;2022-09-20T21:19:48;14.50;99.90
23160;DHT22;11748;50.844;4.396;2022-09-20T21:22:15;14.60;99.90
23160;DHT22;11748;50.844;4.396;2022-09-20T21:24:43;14.60;99.90
23160;DHT22;11748;50.844;4.396;2022-09-20T21:27:08;14.70;99.90
23160;DHT22;11748;50.844;4.396;2022-09-20T21:29:35;14.60;99.90
23160;DHT22;11748;50.844;4.396;2022-09-20T21:32:01;14.60;99.90
23160;DHT22;11748;50.844;4.396;2022-09-20T21:34:27;14.60;99.90
23160;DHT22;11748;50.844;4.396;2022-09-20T21:36:52;14.60;99.90
23160;DHT22;11748;50.844;4.396;2022-09-20T21:39:18;14.50;99.90
23160;DHT22;11748;50.844;4.396;2022-09-20T21:41:45;14.60;99.90
23160;DHT22;11748;50.844;4.396;2022-09-20T21:44:11;14.50;99.90
23160;DHT22;11748;50.844;4.396;2022-09-20T21:46:38;14.50;99.90
23160;DHT22;11748;50.844;4.396;2022-09-20T21:49:05;14.50;99.90
23160;DHT22;11748;50.844;4.396;2022-09-20T21:51:34;14.40;99.90
23160;DHT22;11748;50.844;4.396;2022-09-20T21:54:00;14.40;99.90
23160;DHT22;11748;50.844;4.396;2022-09-20T21:56:29;14.40;99.90
23160;DHT22;11748;50.844;4.396;2022-09-20T21:58:56;14.40;99.90
23160;DHT22;11748;50.844;4.396;2022-09-20T22:01:26;14.40;99.90
23160;DHT22;11748;50.844;4.396;2022-09-20T22:03:56;14.40;99.90